aviador You're here:

GMAT Decoded Metar

TAN TAN in MOROCCO
Report Time2017-09-26 07:00:00
UTC Time2017-09-26 07:10:24
Flight Rules mvfr MVFR
Wind360° at 08 kt
W.Decomp.*RWY 03: 7.2 kt HW 3.5 kt LCW
Visibility5000 m
Phenomena:N/A
Clouds:Overcast 016 Hf
Expected CloudBase > 400 ft AGL from Temp-Dew spread
Ceiling1,600 ft
Temp20°C (ISA +6)
Dew Point19°C (94% RH)
QNH1019 hPa
Density Alt1,483 ft
Elevation656 ft
Report Wrong Elevation
Raw Report
METAR GMAT 260700Z 36008KT 5000 OVC016 20/19 Q1019 NOSIG=

Extra information for GMAT:More info

Metar Taf Metar & Taf Last 4 Metars F.Rules Stats Wind Profile Meteogram Temp Stats Airport Information Weather charts Add Link Nearby VenuesMetar ALERT Operation Metar Decoded Social comments